Погода Бударинона неделю

Западно-Казахстанская область, Казахстан

21 - 27 июля
  • 21июля
    Сегодня
    +19°
    +33°
    Облачно с прояснениями
    ВремяПогодаТемператураВлажностьДавлениеВетер, м/сВероятность осадков
    02:00Практически безоблачно+26°C38 %751 мм3.2 м/с2 %
    05:00Практически безоблачно+23°C39 %750 мм3.7 м/с2 %
    08:00Практически безоблачно+23°C38 %750 мм3.6 м/с2 %
    11:00Облачно с прояснениями+28°C42 %750 мм4.7 м/с2 %
    14:00Облачно с прояснениями+31°C31 %750 мм5.8 м/с2 %
    17:00Облачно с прояснениями+32°C29 %750 мм6.1 м/с2 %
    20:00Практически безоблачно+31°C30 %751 мм5.5 м/с2 %
    23:00Ясно и безоблачно+27°C48 %752 мм3.0 м/с2 %
  • 22июля
    Понедельник
    +19°
    +33°
    Ясно и безоблачно
    ВремяПогодаТемператураВлажностьДавлениеВетер, м/сВероятность осадков
    02:00Ясно и безоблачно+23°C60 %753 мм2.2 м/с2 %
    05:00Ясно и безоблачно+20°C73 %753 мм1.9 м/с2 %
    08:00Ясно и безоблачно+23°C51 %753 мм3.2 м/с2 %
    11:00Ясно и безоблачно+28°C38 %753 мм4.4 м/с2 %
    14:00Ясно и безоблачно+30°C27 %753 мм5.5 м/с2 %
    17:00Ясно и безоблачно+33°C23 %752 мм5.5 м/с2 %
    20:00Практически безоблачно+32°C24 %752 мм4.7 м/с2 %
    23:00Облачно с прояснениями+27°C32 %753 мм1.9 м/с2 %
  • 23июля
    Вторник
    +16°
    +27°
    Облачно с прояснениями
    ВремяПогодаТемператураВлажностьДавлениеВетер, м/сВероятность осадков
    02:00Облачно с прояснениями+22°C40 %753 мм2.4 м/с2 %
    05:00Облачно с прояснениями+19°C50 %753 мм2.5 м/с2 %
    08:00Пасмурно, сплошная облачность+20°C56 %753 мм3.7 м/с7 %
    11:00Практически безоблачно+24°C57 %753 мм3.3 м/с6 %
    14:00Облачно с прояснениями+26°C48 %753 мм3.8 м/с18 %
    17:00Облачно с прояснениями+26°C50 %752 мм3.9 м/с17 %
    20:00Облачно с прояснениями+24°C50 %752 мм2.6 м/с28 %
    23:00Пасмурно, сплошная облачность+22°C52 %752 мм4.2 м/с17 %
  • 24июля
    Среда
    +15°
    +26°
    Облачно с прояснениями
    ВремяПогодаТемператураВлажностьДавлениеВетер, м/сВероятность осадков
    02:00Облачно с прояснениями+19°C54 %752 мм4.0 м/с21 %
    05:00Облачно с прояснениями+17°C62 %752 мм3.4 м/с26 %
    08:00Облачно с прояснениями+18°C62 %752 мм4.3 м/с30 %
    11:00Облачно с прояснениями+22°C45 %751 мм5.4 м/с43 %
    14:00Облачно с прояснениями+24°C40 %751 мм5.5 м/с44 %
    17:00Облачно с прояснениями+25°C58 %750 мм4.8 м/с45 %
    20:00Облачно с прояснениями+24°C71 %749 мм4.8 м/с45 %
    23:00Облачно с прояснениями+20°C66 %750 мм3.7 м/с40 %
  • 25июля
    Четверг
    +12°
    +27°
    Небольшая облачность
    ВремяПогодаТемператураВлажностьДавлениеВетер, м/сВероятность осадков
    02:00Ясно и безоблачно+17°C69 %750 мм2.1 м/с28 %
    05:00Ясно и безоблачно+16°C74 %750 мм3.3 м/с26 %
    08:00Ясно и безоблачно+18°C59 %750 мм4.0 м/с25 %
    11:00Ясно и безоблачно+23°C35 %750 мм5.3 м/с30 %
    14:00Небольшая облачность+25°C27 %750 мм5.6 м/с24 %
    17:00Практически безоблачно+26°C23 %750 мм5.9 м/с24 %
    20:00Ясно и безоблачно+25°C34 %750 мм5.0 м/с25 %
    23:00Ясно и безоблачно+20°C45 %751 мм3.4 м/с11 %
Мы используем cookies
Соглашаюсь